createdAt,value
2023-07-25T00:00:00.703Z,99410.69
2023-07-25T00:03:03.678Z,99422.66
2023-07-25T00:06:06.184Z,99434.69
2023-07-25T00:09:09.289Z,99409.59
2023-07-25T00:12:11.911Z,99399.97
2023-07-25T00:15:14.806Z,99376.88
2023-07-25T00:18:17.200Z,99340.41
2023-07-25T00:21:19.613Z,99324.56
2023-07-25T00:24:22.473Z,99320.38
2023-07-25T00:27:24.908Z,99335.06
2023-07-25T00:30:27.746Z,99336.69
2023-07-25T00:33:30.143Z,99332.50
2023-07-25T00:36:32.777Z,99341.81
2023-07-25T00:39:35.167Z,99349.66
2023-07-25T00:42:37.744Z,99343.59
2023-07-25T00:45:40.278Z,99355.13
2023-07-25T00:48:45.143Z,99373.56
2023-07-25T00:51:47.561Z,99390.94
2023-07-25T00:54:52.054Z,99401.31
2023-07-25T00:57:55.555Z,99395.50
2023-07-25T01:01:08.203Z,99410.13
2023-07-25T01:04:10.759Z,99421.28
2023-07-25T01:07:17.288Z,99434.38
2023-07-25T01:10:19.675Z,99443.19
2023-07-25T01:13:23.533Z,99456.25
2023-07-25T01:16:31.098Z,99469.34
2023-07-25T01:19:35.709Z,99484.09
2023-07-25T01:22:39.447Z,99496.22
2023-07-25T01:25:47.435Z,99487.78
2023-07-25T01:28:51.084Z,99499.47
2023-07-25T01:32:02.672Z,99498.06
2023-07-25T01:35:05.814Z,99486.97
2023-07-25T01:38:08.203Z,99463.91
2023-07-25T01:41:10.629Z,99466.97
2023-07-25T01:44:12.977Z,99461.59
2023-07-25T01:47:15.553Z,99455.44
2023-07-25T01:50:18.346Z,99444.31
2023-07-25T01:53:20.862Z,99413.13
2023-07-25T01:56:23.226Z,99377.06
2023-07-25T01:59:28.113Z,99359.78
2023-07-25T02:02:30.443Z,99351.34
2023-07-25T02:05:33.571Z,99336.75
2023-07-25T02:08:36.275Z,99338.66
2023-07-25T02:11:38.622Z,99329.84
2023-07-25T02:14:41.632Z,99326.03
2023-07-25T02:17:44.289Z,99320.63
2023-07-25T02:20:48.870Z,99323.34
2023-07-25T02:23:52.297Z,99329.09
2023-07-25T02:26:54.843Z,99355.56
2023-07-25T02:30:00.895Z,99361.00
2023-07-25T02:33:03.494Z,99360.22
2023-07-25T02:36:07.233Z,99342.16
2023-07-25T02:39:10.036Z,99248.91
2023-07-25T02:42:12.834Z,99154.88
2023-07-25T02:45:15.400Z,99138.03
2023-07-25T02:48:19.240Z,99157.97
2023-07-25T02:51:22.583Z,99163.75
2023-07-25T02:54:25.331Z,99178.31
2023-07-25T02:57:27.723Z,99152.63
2023-07-25T03:00:30.050Z,99163.38
2023-07-25T03:03:32.486Z,99212.44
2023-07-25T03:06:35.105Z,99239.28
2023-07-25T03:09:38.450Z,99267.97
2023-07-25T03:12:41.012Z,99276.00
2023-07-25T03:15:43.427Z,99294.81
2023-07-25T03:18:46.032Z,99288.72
2023-07-25T03:21:54.432Z,99281.84
2023-07-25T03:24:56.903Z,99281.84
2023-07-25T03:27:59.394Z,99273.03
2023-07-25T03:31:01.915Z,99281.44
2023-07-25T03:34:04.224Z,99291.75
2023-07-25T03:37:06.717Z,99312.44
2023-07-25T03:40:12.745Z,99325.50
2023-07-25T03:43:15.380Z,99305.19
2023-07-25T03:46:17.714Z,99299.88
2023-07-25T03:49:22.633Z,99287.97
2023-07-25T03:52:25.193Z,99283.38
2023-07-25T03:55:27.587Z,99275.31
2023-07-25T03:58:30.098Z,99274.56
2023-07-25T04:01:32.663Z,99279.97
2023-07-25T04:04:35.396Z,99287.59
2023-07-25T04:07:38.242Z,99291.06
2023-07-25T04:10:40.768Z,99291.84
2023-07-25T04:13:43.029Z,99288.78
2023-07-25T04:16:45.610Z,99289.56
2023-07-25T04:19:48.108Z,99283.81
2023-07-25T04:22:50.608Z,99274.19
2023-07-25T04:25:53.127Z,99266.16
2023-07-25T04:28:55.447Z,99277.66
2023-07-25T04:31:58.284Z,99278.47
2023-07-25T04:35:00.890Z,99277.28
2023-07-25T04:38:03.387Z,99278.44
2023-07-25T04:41:05.691Z,99274.25
2023-07-25T04:44:08.342Z,99276.53
2023-07-25T04:47:10.998Z,99281.53
2023-07-25T04:50:14.187Z,99278.47
2023-07-25T04:53:17.108Z,99283.81
2023-07-25T04:56:22.815Z,99278.31
2023-07-25T04:59:27.504Z,99279.19
2023-07-25T05:02:29.912Z,99272.47
2023-07-25T05:05:32.373Z,99282.09
2023-07-25T05:08:34.788Z,99279.53
2023-07-25T05:11:37.637Z,99257.53
2023-07-25T05:14:40.438Z,99248.38
2023-07-25T05:17:44.695Z,99257.00
2023-07-25T05:20:48.554Z,99252.69
2023-07-25T05:23:50.899Z,99259.72
2023-07-25T05:26:53.208Z,99262.28
2023-07-25T05:29:55.540Z,99254.44
2023-07-25T05:32:57.868Z,99263.00
2023-07-25T05:36:01.791Z,99265.59
2023-07-25T05:39:04.211Z,99271.84
2023-07-25T05:42:06.827Z,99264.53
2023-07-25T05:45:09.456Z,99258.47
2023-07-25T05:48:11.725Z,99238.44
2023-07-25T05:51:14.096Z,99245.69
2023-07-25T05:54:17.178Z,99241.50
2023-07-25T05:57:19.612Z,99253.13
2023-07-25T06:00:22.632Z,99266.03
2023-07-25T06:03:24.988Z,99269.84
2023-07-25T06:06:27.593Z,99278.09
2023-07-25T06:09:30.026Z,99269.41
2023-07-25T06:12:32.671Z,99255.94
2023-07-25T06:15:38.156Z,99268.78
2023-07-25T06:18:40.562Z,99254.63
2023-07-25T06:21:42.934Z,99248.00
2023-07-25T06:24:45.388Z,99240.00
2023-07-25T06:27:48.821Z,99230.56
2023-07-25T06:30:51.296Z,99229.63
2023-07-25T06:33:53.700Z,99216.78
2023-07-25T06:36:57.239Z,99222.63
2023-07-25T06:40:01.353Z,99217.13
2023-07-25T06:43:03.833Z,99224.63
2023-07-25T06:46:06.750Z,99214.91
2023-07-25T06:49:09.064Z,99207.69
2023-07-25T06:52:11.423Z,99196.53
2023-07-25T06:55:13.972Z,99203.91
2023-07-25T06:58:16.324Z,99191.00
2023-07-25T07:01:18.876Z,99179.25
2023-07-25T07:04:21.311Z,99184.81
2023-07-25T07:07:23.587Z,99178.09
2023-07-25T07:10:25.886Z,99182.00
2023-07-25T07:13:28.950Z,99177.44
2023-07-25T07:16:31.256Z,99154.94
2023-07-25T07:19:34.582Z,99138.56
2023-07-25T07:22:36.959Z,99139.00
2023-07-25T07:25:39.776Z,99144.50
2023-07-25T07:28:42.917Z,99145.72
2023-07-25T07:31:45.446Z,99146.41
2023-07-25T07:34:47.866Z,99124.28
2023-07-25T07:37:50.269Z,99121.66
2023-07-25T07:40:52.800Z,99124.91
2023-07-25T07:43:55.661Z,99119.16
2023-07-25T07:46:57.990Z,99111.09
2023-07-25T07:50:03.175Z,99112.28
2023-07-25T07:53:10.473Z,99112.75
2023-07-25T07:56:13.832Z,99132.88
2023-07-25T07:59:16.144Z,99126.53
2023-07-25T08:02:19.075Z,99110.63
2023-07-25T08:05:21.781Z,99114.09
2023-07-25T08:08:24.217Z,99128.13
2023-07-25T08:11:26.529Z,99120.09
2023-07-25T08:14:29.036Z,99117.97
2023-07-25T08:17:31.527Z,99110.78
2023-07-25T08:20:33.900Z,99114.59
2023-07-25T08:23:36.210Z,99099.22
2023-07-25T08:26:38.659Z,99110.38
2023-07-25T08:29:42.002Z,99095.88
2023-07-25T08:32:44.300Z,99087.78
2023-07-25T08:35:47.837Z,99075.63
2023-07-25T08:38:50.226Z,99085.13
2023-07-25T08:41:53.964Z,99089.47
2023-07-25T08:44:56.811Z,99091.41
2023-07-25T08:48:04.309Z,99097.38
2023-07-25T08:51:19.635Z,99098.03
2023-07-25T08:54:33.734Z,99111.59
2023-07-25T08:57:38.402Z,99106.34
2023-07-25T09:00:41.697Z,99113.47
2023-07-25T09:03:45.821Z,99147.72
2023-07-25T09:06:48.586Z,99165.41
2023-07-25T09:09:50.919Z,99177.66
2023-07-25T09:12:53.873Z,99200.53
2023-07-25T09:15:56.475Z,99260.56
2023-07-25T09:18:59.120Z,99325.63
2023-07-25T09:22:01.936Z,99413.03
2023-07-25T09:25:09.560Z,99437.31
2023-07-25T09:28:11.903Z,99423.56
2023-07-25T09:31:14.213Z,99428.97
2023-07-25T09:34:20.703Z,99428.81
2023-07-25T09:37:23.364Z,99386.69
2023-07-25T09:40:26.306Z,99418.13
2023-07-25T09:43:29.335Z,99399.56
2023-07-25T09:46:31.739Z,99399.97
2023-07-25T09:49:34.570Z,99383.16
2023-07-25T09:52:41.503Z,99362.00
2023-07-25T09:55:45.238Z,99351.28
2023-07-25T09:59:05.722Z,99339.41
2023-07-25T10:02:10.954Z,99303.59
2023-07-25T10:05:14.340Z,99299.50
2023-07-25T10:08:17.882Z,99282.28
2023-07-25T10:11:22.031Z,99280.03
2023-07-25T10:14:24.593Z,99292.78
2023-07-25T10:17:27.285Z,99306.09
2023-07-25T10:20:29.865Z,99321.38
2023-07-25T10:23:35.892Z,99331.28
2023-07-25T10:26:55.935Z,99314.19
2023-07-25T10:30:02.781Z,99306.19
2023-07-25T10:33:07.664Z,99344.97
2023-07-25T10:36:24.562Z,99343.72
2023-07-25T10:39:27.362Z,99340.41
2023-07-25T10:43:06.684Z,99321.03
2023-07-25T10:46:14.811Z,99295.31
2023-07-25T10:49:17.640Z,99285.75
2023-07-25T10:52:43.322Z,99256.19
2023-07-25T10:56:07.874Z,99253.81
2023-07-25T10:59:13.286Z,99242.75
2023-07-25T11:02:34.024Z,99240.44
2023-07-25T11:05:36.483Z,99273.81
2023-07-25T11:08:43.270Z,99259.78
2023-07-25T11:11:47.844Z,99247.69
2023-07-25T11:14:50.773Z,99227.63
2023-07-25T11:17:53.694Z,99205.13
2023-07-25T11:21:06.607Z,99173.59
2023-07-25T11:24:10.097Z,99168.34
2023-07-25T11:27:13.122Z,99148.66
2023-07-25T11:30:16.162Z,99139.91
2023-07-25T11:33:19.204Z,99149.28
2023-07-25T11:36:22.682Z,99154.81
2023-07-25T11:39:25.149Z,99152.78
2023-07-25T11:42:28.870Z,99133.34
2023-07-25T11:45:31.516Z,99128.22
2023-07-25T11:48:34.191Z,99128.56
2023-07-25T11:51:38.282Z,99105.69
2023-07-25T11:54:40.974Z,99109.13
2023-07-25T11:57:43.568Z,99119.53
2023-07-25T12:00:52.458Z,99110.03
2023-07-25T12:03:54.977Z,99126.06
2023-07-25T12:07:00.418Z,99121.38
2023-07-25T12:10:02.727Z,99133.91
2023-07-25T12:13:09.737Z,99141.50
2023-07-25T12:16:37.134Z,99151.03
2023-07-25T12:19:39.771Z,99157.63
2023-07-25T12:22:42.206Z,99163.66
2023-07-25T12:25:44.620Z,99154.97
2023-07-25T12:28:46.909Z,99147.78
2023-07-25T12:31:49.570Z,99137.78
2023-07-25T12:34:52.112Z,99130.81
2023-07-25T12:37:54.476Z,99132.94
2023-07-25T12:40:56.882Z,99158.41
2023-07-25T12:44:00.267Z,99147.63
2023-07-25T12:47:05.675Z,99135.81
2023-07-25T12:50:09.877Z,99120.25
2023-07-25T12:53:12.665Z,99084.16
2023-07-25T12:56:14.998Z,99061.53
2023-07-25T12:59:17.316Z,99052.28
2023-07-25T13:02:19.636Z,99043.22
2023-07-25T13:05:21.999Z,99047.00
2023-07-25T13:08:24.275Z,99013.50
2023-07-25T13:11:26.680Z,99003.50
2023-07-25T13:14:29.008Z,99033.47
2023-07-25T13:17:31.604Z,98997.97
2023-07-25T13:20:34.111Z,98978.47
2023-07-25T13:23:36.610Z,99047.38
2023-07-25T13:26:39.044Z,99068.06
2023-07-25T13:29:41.534Z,99057.41
2023-07-25T13:32:43.929Z,99085.66
2023-07-25T13:35:46.511Z,99093.72
2023-07-25T13:38:48.861Z,99101.53
2023-07-25T13:41:51.270Z,99109.84
2023-07-25T13:44:53.604Z,99111.88
2023-07-25T13:47:56.040Z,99125.06
2023-07-25T13:50:58.492Z,99110.03
2023-07-25T13:54:00.826Z,99124.09
2023-07-25T13:57:03.266Z,99141.50
2023-07-25T14:00:06.620Z,99138.41
2023-07-25T14:03:11.641Z,99122.69
2023-07-25T14:06:14.024Z,99128.91
2023-07-25T14:09:16.426Z,99118.59
2023-07-25T14:12:18.944Z,99121.19
2023-07-25T14:15:21.410Z,99114.84
2023-07-25T14:18:24.212Z,99098.16
2023-07-25T14:21:26.569Z,99090.06
2023-07-25T14:24:29.074Z,99092.22
2023-07-25T14:27:31.424Z,99080.63
2023-07-25T14:30:35.273Z,99048.47
2023-07-25T14:33:37.692Z,99021.41
2023-07-25T14:36:40.031Z,99022.63
2023-07-25T14:39:42.489Z,99048.81
2023-07-25T14:42:45.270Z,99060.88
2023-07-25T14:45:47.976Z,99021.75
2023-07-25T14:48:50.302Z,98949.28
2023-07-25T14:51:52.612Z,98897.22
2023-07-25T14:54:54.926Z,98907.06
2023-07-25T14:57:57.222Z,98912.78
2023-07-25T15:00:59.884Z,98910.59
2023-07-25T15:04:02.289Z,98907.63
2023-07-25T15:07:05.198Z,98931.97
2023-07-25T15:10:08.110Z,98924.44
2023-07-25T15:13:12.495Z,98918.78
2023-07-25T15:16:15.058Z,98936.09
2023-07-25T15:19:17.431Z,98934.91
2023-07-25T15:22:20.004Z,98951.09
2023-07-25T15:25:22.341Z,98927.94
2023-07-25T15:28:24.710Z,98915.81
2023-07-25T15:31:27.052Z,98932.25
2023-07-25T15:34:29.420Z,98957.06
2023-07-25T15:37:31.724Z,98967.25
2023-07-25T15:40:37.835Z,98982.91
2023-07-25T15:43:40.230Z,98988.25
2023-07-25T15:46:42.683Z,98998.84
2023-07-25T15:49:45.237Z,98999.81
2023-07-25T15:52:47.489Z,99011.38
2023-07-25T15:55:49.851Z,99011.09
2023-07-25T15:58:52.241Z,99007.97
2023-07-25T16:01:54.885Z,99012.78
2023-07-25T16:04:57.233Z,99011.50
2023-07-25T16:08:03.818Z,99015.16
2023-07-25T16:11:06.396Z,99017.50
2023-07-25T16:14:08.820Z,99005.38
2023-07-25T16:17:11.784Z,99010.19
2023-07-25T16:20:14.188Z,99014.00
2023-07-25T16:23:16.500Z,99015.38
2023-07-25T16:26:19.074Z,99024.53
2023-07-25T16:29:21.385Z,99031.13
2023-07-25T16:32:24.194Z,99032.22
2023-07-25T16:35:26.722Z,99036.47
2023-07-25T16:38:29.023Z,99042.19
2023-07-25T16:41:31.540Z,99046.50
2023-07-25T16:44:34.059Z,99040.38
2023-07-25T16:47:36.444Z,99056.13
2023-07-25T16:50:38.858Z,99051.56
2023-07-25T16:53:41.494Z,99046.63
2023-07-25T16:56:44.305Z,99044.16
2023-07-25T16:59:48.407Z,99042.28
2023-07-25T17:02:51.034Z,99046.22
2023-07-25T17:05:53.415Z,99055.56
2023-07-25T17:08:57.629Z,99062.50
2023-07-25T17:12:02.011Z,99070.50
2023-07-25T17:15:06.803Z,99075.09
2023-07-25T17:18:09.598Z,99081.28
2023-07-25T17:21:13.448Z,99078.63
2023-07-25T17:24:18.905Z,99074.84
2023-07-25T17:27:21.530Z,99085.50
2023-07-25T17:30:24.028Z,99078.63
2023-07-25T17:33:26.635Z,99084.84
2023-07-25T17:36:29.125Z,99092.09
2023-07-25T17:39:34.044Z,99094.06
2023-07-25T17:42:37.752Z,99079.94
2023-07-25T17:45:41.429Z,99084.50
2023-07-25T17:48:44.479Z,99086.44
2023-07-25T17:51:46.887Z,99086.06
2023-07-25T17:54:50.083Z,99081.88
2023-07-25T17:57:52.648Z,99083.91
2023-07-25T18:00:55.103Z,99067.84
2023-07-25T18:03:57.633Z,99049.09
2023-07-25T18:07:00.035Z,99041.44
2023-07-25T18:10:02.564Z,99047.59
2023-07-25T18:13:05.703Z,99070.97
2023-07-25T18:16:08.965Z,99066.75
2023-07-25T18:19:11.327Z,99078.25
2023-07-25T18:22:13.713Z,99069.81
2023-07-25T18:25:16.063Z,99056.78
2023-07-25T18:28:21.950Z,99052.56
2023-07-25T18:31:24.261Z,99062.50
2023-07-25T18:34:26.722Z,99067.47
2023-07-25T18:37:29.157Z,99065.19
2023-07-25T18:40:31.514Z,99059.06
2023-07-25T18:43:33.882Z,99071.28
2023-07-25T18:46:37.363Z,99068.25
2023-07-25T18:49:39.759Z,99085.47
2023-07-25T18:52:42.204Z,99078.19
2023-07-25T18:55:44.594Z,99098.44
2023-07-25T18:58:46.901Z,99111.84
2023-07-25T19:01:49.183Z,99120.97
2023-07-25T19:04:52.092Z,99120.97
2023-07-25T19:07:54.791Z,99118.63
2023-07-25T19:10:57.190Z,99102.47
2023-07-25T19:13:59.595Z,99097.47
2023-07-25T19:17:02.945Z,99089.44
2023-07-25T19:20:06.790Z,99080.22
2023-07-25T19:23:23.598Z,99080.97
2023-07-25T19:26:27.927Z,99085.94
2023-07-25T19:29:30.269Z,99085.53
2023-07-25T19:32:32.635Z,99085.50
2023-07-25T19:35:35.319Z,99087.41
2023-07-25T19:38:37.659Z,99086.22
2023-07-25T19:41:40.281Z,99080.09
2023-07-25T19:44:42.718Z,99083.44
2023-07-25T19:47:45.140Z,99087.22
2023-07-25T19:50:48.034Z,99092.91
2023-07-25T19:53:52.125Z,99093.66
2023-07-25T19:56:54.969Z,99085.97
2023-07-25T19:59:57.340Z,99084.47
2023-07-25T20:02:59.713Z,99094.03
2023-07-25T20:06:03.107Z,99090.97
2023-07-25T20:09:05.486Z,99087.16
2023-07-25T20:12:09.322Z,99099.00
2023-07-25T20:15:12.262Z,99093.28
2023-07-25T20:18:16.145Z,99093.59
2023-07-25T20:21:18.506Z,99088.16
2023-07-25T20:24:20.857Z,99099.53
2023-07-25T20:27:24.557Z,99109.13
2023-07-25T20:30:26.933Z,99107.88
2023-07-25T20:33:29.365Z,99107.88
2023-07-25T20:36:32.008Z,99094.88
2023-07-25T20:39:34.595Z,99096.03
2023-07-25T20:42:36.948Z,99084.56
2023-07-25T20:45:39.386Z,99085.28
2023-07-25T20:48:41.725Z,99098.25
2023-07-25T20:51:44.033Z,99098.56
2023-07-25T20:54:46.482Z,99100.88
2023-07-25T20:57:49.377Z,99118.47
2023-07-25T21:00:52.254Z,99118.53
2023-07-25T21:03:54.689Z,99096.31
2023-07-25T21:06:57.018Z,99107.44
2023-07-25T21:09:59.346Z,99113.22
2023-07-25T21:13:01.679Z,99125.16
2023-07-25T21:16:04.333Z,99135.84
2023-07-25T21:19:06.937Z,99131.69
2023-07-25T21:22:09.885Z,99121.75
2023-07-25T21:25:12.428Z,99143.94
2023-07-25T21:28:14.715Z,99166.16
2023-07-25T21:31:17.129Z,99181.16
2023-07-25T21:34:19.975Z,99172.03
2023-07-25T21:37:22.637Z,99163.59
2023-07-25T21:40:25.260Z,99165.56
2023-07-25T21:43:27.631Z,99156.41
2023-07-25T21:46:30.104Z,99145.63
2023-07-25T21:49:32.546Z,99163.22
2023-07-25T21:52:34.803Z,99173.59
2023-07-25T21:55:37.164Z,99170.50
2023-07-25T21:58:39.524Z,99173.19
2023-07-25T22:01:41.864Z,99147.56
2023-07-25T22:04:44.225Z,99147.13
2023-07-25T22:07:47.417Z,99165.09
2023-07-25T22:10:49.924Z,99167.00
2023-07-25T22:13:52.512Z,99165.84
2023-07-25T22:16:55.050Z,99162.38
2023-07-25T22:19:57.356Z,99156.25
2023-07-25T22:22:59.621Z,99153.97
2023-07-25T22:26:03.389Z,99140.88
2023-07-25T22:29:05.747Z,99152.69
2023-07-25T22:32:08.406Z,99146.22
2023-07-25T22:35:10.766Z,99156.19
2023-07-25T22:38:13.219Z,99154.59
2023-07-25T22:41:16.235Z,99135.06
2023-07-25T22:44:18.631Z,99130.78
2023-07-25T22:47:21.098Z,99122.38
2023-07-25T22:50:23.653Z,99107.44
2023-07-25T22:53:26.039Z,99100.84
2023-07-25T22:56:28.424Z,99093.88
2023-07-25T22:59:30.832Z,99087.81
2023-07-25T23:02:33.253Z,99095.41
2023-07-25T23:05:35.919Z,99110.09
2023-07-25T23:08:38.195Z,99107.44
2023-07-25T23:11:40.545Z,99091.72
2023-07-25T23:14:43.287Z,99082.03
2023-07-25T23:17:45.592Z,99084.63
2023-07-25T23:20:47.930Z,99084.88
2023-07-25T23:23:50.225Z,99084.81
2023-07-25T23:26:52.677Z,99091.72
2023-07-25T23:29:55.033Z,99087.56
2023-07-25T23:32:57.405Z,99087.59
2023-07-25T23:36:00.146Z,99092.81
2023-07-25T23:39:02.546Z,99097.75
2023-07-25T23:42:05.324Z,99109.63
2023-07-25T23:45:08.322Z,99121.41
2023-07-25T23:48:10.876Z,99131.81
2023-07-25T23:51:13.190Z,99119.28
2023-07-25T23:54:15.503Z,99132.25
2023-07-25T23:57:17.885Z,99162.94
